Time;durP1;ratioP1;P1;durP2;ratioP2;P2;SDS_P1;SDS_P2;PMS_P1;PMS_P2;Temp;Humidity;BMP_temperature;BMP_pressure;BME280_temperature;BME280_humidity;BME280_pressure;Samples;Min_cycle;Max_cycle;Signal;HPM_P1;HPM_P2
2021/08/28 00:01:16;;;;;;;18.02;6.70;;;;;;;;;;5020685;28;20492;-79
2021/08/28 00:03:43;;;;;;;17.55;5.57;;;;;;;;;;5021564;28;20090;-79
2021/08/28 00:06:12;;;;;;;20.27;7.25;;;;;;;;;;5021625;28;20036;-79
2021/08/28 00:08:39;;;;;;;17.08;7.28;;;;;;;;;;5018786;28;20514;-79
2021/08/28 00:11:07;;;;;;;21.10;8.07;;;;;;;;;;5025458;28;20083;-79
2021/08/28 00:13:35;;;;;;;21.10;7.88;;;;;;;;;;5020824;28;20036;-79
2021/08/28 00:16:02;;;;;;;22.85;8.68;;;;;;;;;;5024926;28;20091;-79
2021/08/28 00:18:28;;;;;;;23.42;8.45;;;;;;;;;;5025138;28;20118;-78
2021/08/28 00:20:57;;;;;;;21.38;6.90;;;;;;;;;;5021325;28;20892;-78
2021/08/28 00:23:26;;;;;;;21.33;8.30;;;;;;;;;;5033041;28;20033;-80
2021/08/28 00:25:54;;;;;;;22.35;8.27;;;;;;;;;;5036034;28;20032;-79
2021/08/28 00:28:22;;;;;;;22.42;8.07;;;;;;;;;;5042994;28;20102;-78
2021/08/28 00:30:51;;;;;;;18.55;7.72;;;;;;;;;;5022303;28;20055;-78
2021/08/28 00:33:21;;;;;;;21.55;7.63;;;;;;;;;;5024440;28;20136;-78
2021/08/28 00:35:49;;;;;;;20.58;7.82;;;;;;;;;;5017982;28;20109;-78
2021/08/28 00:38:16;;;;;;;18.98;7.10;;;;;;;;;;5024032;28;20136;-78
2021/08/28 00:40:44;;;;;;;17.52;6.38;;;;;;;;;;5019809;28;20037;-78
2021/08/28 00:43:12;;;;;;;18.13;7.72;;;;;;;;;;5021300;28;20037;-78
2021/08/28 00:45:40;;;;;;;18.63;6.93;;;;;;;;;;5034878;28;20248;-78
2021/08/28 00:48:08;;;;;;;21.63;7.28;;;;;;;;;;5026087;28;20120;-79
2021/08/28 00:50:38;;;;;;;19.25;6.55;;;;;;;;;;5006169;28;20041;-79
2021/08/28 00:53:15;;;;;;;19.45;7.10;;;;;;;;;;5020011;28;20110;-78
2021/08/28 00:55:47;;;;;;;16.65;6.28;;;;;;;;;;5035750;28;20191;-78
2021/08/28 00:58:13;;;;;;;21.02;6.65;;;;;;;;;;5035976;28;20206;-78
2021/08/28 01:00:46;;;;;;;17.65;6.00;;;;;;;;;;5004602;28;20051;-78
2021/08/28 01:03:16;;;;;;;16.27;6.95;;;;;;;;;;5037020;28;20060;-79
2021/08/28 01:06:00;;;;;;;14.45;6.55;;;;;;;;;;5033374;28;20055;-78
2021/08/28 01:08:45;;;;;;;20.98;7.28;;;;;;;;;;5036468;28;20056;-77
2021/08/28 01:11:27;;;;;;;18.65;6.78;;;;;;;;;;5037744;28;20105;-77
2021/08/28 01:14:06;;;;;;;16.88;6.63;;;;;;;;;;5035443;28;20048;-77
2021/08/28 01:16:34;;;;;;;21.27;6.55;;;;;;;;;;5036602;28;20826;-79
2021/08/28 01:19:02;;;;;;;18.13;6.70;;;;;;;;;;5040123;28;20122;-78
2021/08/28 01:21:32;;;;;;;16.77;6.82;;;;;;;;;;5010345;28;20040;-79
2021/08/28 01:24:02;;;;;;;18.77;8.30;;;;;;;;;;5031662;28;20137;-78
2021/08/28 01:26:43;;;;;;;18.60;7.40;;;;;;;;;;5035490;28;20487;-78
2021/08/28 01:29:20;;;;;;;19.77;7.78;;;;;;;;;;5036136;28;20040;-78
2021/08/28 01:31:48;;;;;;;17.95;7.50;;;;;;;;;;5033485;28;20361;-78
2021/08/28 01:34:19;;;;;;;14.00;6.80;;;;;;;;;;5036940;28;20151;-78
2021/08/28 01:36:47;;;;;;;16.67;6.75;;;;;;;;;;5017726;28;20028;-78
2021/08/28 01:39:14;;;;;;;18.77;6.53;;;;;;;;;;5027748;28;20088;-78
2021/08/28 01:41:43;;;;;;;19.90;7.88;;;;;;;;;;5017614;28;20115;-78
2021/08/28 01:44:12;;;;;;;18.55;6.82;;;;;;;;;;5022671;28;20056;-78
2021/08/28 01:46:39;;;;;;;21.85;7.72;;;;;;;;;;5016755;28;20044;-78
2021/08/28 01:49:09;;;;;;;15.98;6.22;;;;;;;;;;5023202;28;20049;-78
2021/08/28 01:51:37;;;;;;;19.27;6.45;;;;;;;;;;5016048;28;20120;-79
2021/08/28 01:54:07;;;;;;;22.25;7.22;;;;;;;;;;5037555;28;20116;-78
2021/08/28 01:56:35;;;;;;;21.13;7.35;;;;;;;;;;5021284;28;20082;-79
2021/08/28 01:59:02;;;;;;;21.70;7.45;;;;;;;;;;5022243;28;20409;-78
2021/08/28 02:01:31;;;;;;;21.95;7.65;;;;;;;;;;5025707;28;20020;-79
2021/08/28 02:03:58;;;;;;;22.35;7.63;;;;;;;;;;5019674;28;20522;-78
2021/08/28 02:06:40;;;;;;;13.00;5.20;;;;;;;;;;5023412;28;20017;-79
2021/08/28 02:09:16;;;;;;;15.55;6.68;;;;;;;;;;5020095;28;20040;-78
2021/08/28 02:12:01;;;;;;;17.40;7.68;;;;;;;;;;5021286;28;20396;-77
2021/08/28 02:14:46;;;;;;;17.85;7.47;;;;;;;;;;5022226;28;20049;-78
2021/08/28 02:17:14;;;;;;;20.95;8.20;;;;;;;;;;5021892;28;20020;-76
2021/08/28 02:19:44;;;;;;;15.98;7.60;;;;;;;;;;5020124;28;20108;-78
2021/08/28 02:22:15;;;;;;;19.88;7.45;;;;;;;;;;5037698;28;20048;-76
2021/08/28 02:24:45;;;;;;;19.33;7.22;;;;;;;;;;5037832;28;20131;-80
2021/08/28 02:27:21;;;;;;;18.55;7.40;;;;;;;;;;5037296;28;20033;-77
2021/08/28 02:30:10;;;;;;;17.52;7.00;;;;;;;;;;5020365;28;20120;-79
2021/08/28 02:32:40;;;;;;;15.82;7.57;;;;;;;;;;5024664;28;20047;-76
2021/08/28 02:35:11;;;;;;;16.65;7.35;;;;;;;;;;5045755;28;20467;-76
2021/08/28 02:37:40;;;;;;;17.75;7.40;;;;;;;;;;5042711;28;20061;-77
2021/08/28 02:40:12;;;;;;;17.40;7.15;;;;;;;;;;5038398;28;20139;-78
2021/08/28 02:42:39;;;;;;;19.63;7.85;;;;;;;;;;5004363;28;20131;-78
2021/08/28 02:45:07;;;;;;;15.43;7.30;;;;;;;;;;5041507;28;20048;-77
2021/08/28 02:47:35;;;;;;;16.50;6.85;;;;;;;;;;5007835;28;20033;-78
2021/08/28 02:50:02;;;;;;;16.23;7.07;;;;;;;;;;5040479;28;20021;-76
2021/08/28 02:52:33;;;;;;;15.88;6.68;;;;;;;;;;5040140;28;20025;-77
2021/08/28 02:55:06;;;;;;;17.20;7.25;;;;;;;;;;5023936;28;20482;-77
2021/08/28 02:57:36;;;;;;;21.30;8.30;;;;;;;;;;5024802;28;20028;-77
2021/08/28 03:00:03;;;;;;;13.40;5.78;;;;;;;;;;5046192;28;20024;-77
2021/08/28 03:02:34;;;;;;;19.50;8.40;;;;;;;;;;5043952;28;20586;-78
2021/08/28 03:05:04;;;;;;;20.45;8.45;;;;;;;;;;5027891;28;20174;-78
2021/08/28 03:07:31;;;;;;;19.05;8.10;;;;;;;;;;5028086;28;20408;-78
2021/08/28 03:09:57;;;;;;;16.38;7.03;;;;;;;;;;5037308;28;20032;-78
2021/08/28 03:12:24;;;;;;;14.23;7.53;;;;;;;;;;5038447;28;20051;-78
2021/08/28 03:14:53;;;;;;;19.25;8.55;;;;;;;;;;5020582;28;20489;-78
2021/08/28 03:17:20;;;;;;;22.38;8.32;;;;;;;;;;5027733;28;20040;-78
2021/08/28 03:19:50;;;;;;;25.20;9.25;;;;;;;;;;5017412;28;20118;-78
2021/08/28 03:22:19;;;;;;;17.23;8.80;;;;;;;;;;5024496;28;20071;-78
2021/08/28 03:24:51;;;;;;;19.35;9.95;;;;;;;;;;5020912;28;20041;-78
2021/08/28 03:27:20;;;;;;;16.10;8.02;;;;;;;;;;5027401;28;20033;-78
2021/08/28 03:29:50;;;;;;;18.25;9.57;;;;;;;;;;5034644;28;20057;-78
2021/08/28 03:32:17;;;;;;;19.52;8.55;;;;;;;;;;5023537;28;20033;-78
2021/08/28 03:34:45;;;;;;;19.77;9.50;;;;;;;;;;5019938;28;20120;-78
2021/08/28 03:37:14;;;;;;;13.35;7.10;;;;;;;;;;5023983;28;20025;-78
2021/08/28 03:39:43;;;;;;;21.30;8.93;;;;;;;;;;5018044;28;20561;-78
2021/08/28 03:42:10;;;;;;;16.75;7.72;;;;;;;;;;5025029;28;20044;-78
2021/08/28 03:44:58;;;;;;;18.60;9.25;;;;;;;;;;5017801;28;20098;-78
2021/08/28 03:47:26;;;;;;;16.10;7.60;;;;;;;;;;4983518;28;20055;-78
2021/08/28 03:49:53;;;;;;;16.92;7.35;;;;;;;;;;4980999;28;20566;-78
2021/08/28 03:52:19;;;;;;;17.25;7.57;;;;;;;;;;4985003;28;20127;-78
2021/08/28 03:54:46;;;;;;;19.42;7.80;;;;;;;;;;4998059;28;20579;-78
2021/08/28 03:57:13;;;;;;;18.88;7.97;;;;;;;;;;4986710;28;20045;-78
2021/08/28 03:59:39;;;;;;;14.77;6.63;;;;;;;;;;4996154;28;21061;-78
2021/08/28 04:02:28;;;;;;;13.60;6.00;;;;;;;;;;4999963;28;20037;-78
2021/08/28 04:04:55;;;;;;;18.25;6.85;;;;;;;;;;5000004;28;20159;-78
2021/08/28 04:07:24;;;;;;;17.73;6.10;;;;;;;;;;4984369;28;20041;-77
2021/08/28 04:09:53;;;;;;;17.70;7.30;;;;;;;;;;4982601;28;20405;-78
2021/08/28 04:12:21;;;;;;;16.48;6.72;;;;;;;;;;5005029;28;20045;-78
2021/08/28 04:14:48;;;;;;;21.83;7.35;;;;;;;;;;4977873;28;20037;-79
2021/08/28 04:17:16;;;;;;;16.75;6.70;;;;;;;;;;5002356;28;20091;-78
2021/08/28 04:19:43;;;;;;;17.95;7.18;;;;;;;;;;5001357;28;20151;-78
2021/08/28 04:22:10;;;;;;;15.43;6.57;;;;;;;;;;5007398;28;20119;-78
2021/08/28 04:24:37;;;;;;;15.70;6.95;;;;;;;;;;4999826;28;20161;-78
2021/08/28 04:27:04;;;;;;;16.70;7.80;;;;;;;;;;5009687;28;20630;-78
2021/08/28 04:29:31;;;;;;;17.40;7.22;;;;;;;;;;5018924;28;20060;-78
2021/08/28 04:32:00;;;;;;;13.90;6.25;;;;;;;;;;5002715;28;20614;-78
2021/08/28 04:34:30;;;;;;;15.48;6.03;;;;;;;;;;5023155;28;20037;-78
2021/08/28 04:36:56;;;;;;;15.95;6.78;;;;;;;;;;5003096;28;20036;-78
2021/08/28 04:39:24;;;;;;;13.77;6.25;;;;;;;;;;5006811;28;20040;-79
2021/08/28 04:41:52;;;;;;;16.48;7.28;;;;;;;;;;5013023;28;20024;-79
2021/08/28 04:44:18;;;;;;;16.33;7.28;;;;;;;;;;5022251;28;20131;-79
2021/08/28 04:46:45;;;;;;;13.38;5.88;;;;;;;;;;5005218;28;20040;-79
2021/08/28 04:49:14;;;;;;;18.80;8.10;;;;;;;;;;5009245;28;21392;-75
2021/08/28 04:51:42;;;;;;;14.07;6.38;;;;;;;;;;5018344;28;20279;-77
2021/08/28 04:54:08;;;;;;;14.32;6.55;;;;;;;;;;5022299;28;20447;-81
2021/08/28 04:56:38;;;;;;;16.83;7.13;;;;;;;;;;5025577;28;20027;-79
2021/08/28 04:59:10;;;;;;;18.27;7.95;;;;;;;;;;5021365;28;20037;-79
2021/08/28 05:01:37;;;;;;;20.45;7.82;;;;;;;;;;5021188;28;20033;-79
2021/08/28 05:04:05;;;;;;;15.00;7.20;;;;;;;;;;5021482;28;20021;-77
2021/08/28 05:06:33;;;;;;;15.85;7.18;;;;;;;;;;5024621;28;20029;-77
2021/08/28 05:09:00;;;;;;;12.63;6.70;;;;;;;;;;5020508;28;20036;-77
2021/08/28 05:11:28;;;;;;;19.65;7.40;;;;;;;;;;5028218;28;20061;-77
2021/08/28 05:13:56;;;;;;;20.38;7.28;;;;;;;;;;5018247;28;20055;-77
2021/08/28 05:16:26;;;;;;;16.15;6.50;;;;;;;;;;5023554;28;20844;-77
2021/08/28 05:18:55;;;;;;;15.90;6.43;;;;;;;;;;5020152;28;20514;-77
2021/08/28 05:21:22;;;;;;;18.20;6.35;;;;;;;;;;5021451;28;20219;-78
2021/08/28 05:23:51;;;;;;;16.35;6.70;;;;;;;;;;5025790;28;20024;-77
2021/08/28 05:26:20;;;;;;;14.18;5.93;;;;;;;;;;5021001;28;20037;-78
2021/08/28 05:28:48;;;;;;;13.50;5.82;;;;;;;;;;5037848;28;20390;-78
2021/08/28 05:31:16;;;;;;;14.50;5.65;;;;;;;;;;5017096;28;20041;-77
2021/08/28 05:33:45;;;;;;;17.50;6.90;;;;;;;;;;5024044;28;20024;-78
2021/08/28 05:36:12;;;;;;;15.38;6.63;;;;;;;;;;5022109;28;20538;-79
2021/08/28 05:38:41;;;;;;;17.73;5.82;;;;;;;;;;5019785;28;20026;-79
2021/08/28 05:41:10;;;;;;;15.30;5.43;;;;;;;;;;5037405;28;20483;-79
2021/08/28 05:43:38;;;;;;;13.90;5.80;;;;;;;;;;5018790;28;20022;-79
2021/08/28 05:46:07;;;;;;;12.40;4.97;;;;;;;;;;5022661;28;20021;-77
2021/08/28 05:48:34;;;;;;;15.57;5.22;;;;;;;;;;5021619;28;20435;-80
2021/08/28 05:51:00;;;;;;;14.35;5.85;;;;;;;;;;5026233;28;20495;-78
2021/08/28 05:53:27;;;;;;;13.60;5.55;;;;;;;;;;5018273;28;20037;-78
2021/08/28 05:55:55;;;;;;;14.25;4.82;;;;;;;;;;5022239;28;21180;-78
2021/08/28 05:58:22;;;;;;;15.07;5.53;;;;;;;;;;5020950;28;20024;-78
2021/08/28 06:00:54;;;;;;;11.85;4.75;;;;;;;;;;5024548;28;20024;-78
2021/08/28 06:03:22;;;;;;;14.20;5.80;;;;;;;;;;5017787;28;20033;-77
2021/08/28 06:05:51;;;;;;;13.18;4.65;;;;;;;;;;5018782;28;20077;-77
2021/08/28 06:08:17;;;;;;;12.20;5.10;;;;;;;;;;5023986;28;20052;-78
2021/08/28 06:10:45;;;;;;;11.52;5.63;;;;;;;;;;5017755;28;20025;-78
2021/08/28 06:13:12;;;;;;;10.70;4.60;;;;;;;;;;5028073;28;20547;-78
2021/08/28 06:15:39;;;;;;;11.32;5.32;;;;;;;;;;5017533;28;20614;-78
2021/08/28 06:18:08;;;;;;;12.45;5.30;;;;;;;;;;5010017;28;20136;-78
2021/08/28 06:20:37;;;;;;;14.23;5.85;;;;;;;;;;5020587;28;20043;-78
2021/08/28 06:23:04;;;;;;;14.43;5.85;;;;;;;;;;5021728;28;20039;-78
2021/08/28 06:25:33;;;;;;;12.30;5.00;;;;;;;;;;5021219;28;20791;-78
2021/08/28 06:28:04;;;;;;;18.30;6.65;;;;;;;;;;5001446;28;20037;-78
2021/08/28 06:30:38;;;;;;;11.65;5.13;;;;;;;;;;5023400;28;20021;-78
2021/08/28 06:33:05;;;;;;;14.75;6.20;;;;;;;;;;5024485;28;20376;-77
2021/08/28 06:35:34;;;;;;;14.93;6.57;;;;;;;;;;5024692;28;20025;-77
2021/08/28 06:38:02;;;;;;;16.00;7.20;;;;;;;;;;5028127;28;20036;-77
2021/08/28 06:40:28;;;;;;;14.32;6.10;;;;;;;;;;5025486;28;20119;-79
2021/08/28 06:42:55;;;;;;;16.65;7.53;;;;;;;;;;5020289;28;20191;-79
2021/08/28 06:45:21;;;;;;;13.30;5.80;;;;;;;;;;5023465;28;20017;-77
2021/08/28 06:47:47;;;;;;;14.18;5.82;;;;;;;;;;5022640;28;20017;-77
2021/08/28 06:50:18;;;;;;;13.70;5.53;;;;;;;;;;5028466;28;20032;-79
2021/08/28 06:52:45;;;;;;;13.77;4.97;;;;;;;;;;5031238;28;20025;-76
2021/08/28 06:55:11;;;;;;;13.77;5.95;;;;;;;;;;5019788;28;20092;-77
2021/08/28 06:57:42;;;;;;;16.38;5.43;;;;;;;;;;5029324;28;20033;-78
2021/08/28 07:00:12;;;;;;;15.45;5.10;;;;;;;;;;5027718;28;20032;-79
2021/08/28 07:02:44;;;;;;;15.25;4.97;;;;;;;;;;5024603;28;20068;-78
2021/08/28 07:05:11;;;;;;;14.07;4.60;;;;;;;;;;5010375;28;20033;-78
2021/08/28 07:07:38;;;;;;;16.83;5.40;;;;;;;;;;5021356;28;20035;-78
2021/08/28 07:10:08;;;;;;;13.80;4.88;;;;;;;;;;5025530;28;21222;-79
2021/08/28 07:12:37;;;;;;;13.80;4.63;;;;;;;;;;5023594;28;20109;-79
2021/08/28 07:15:06;;;;;;;14.52;5.15;;;;;;;;;;5025116;28;20037;-78
2021/08/28 07:17:35;;;;;;;13.05;4.40;;;;;;;;;;5025487;28;20133;-78
2021/08/28 07:20:04;;;;;;;13.70;4.53;;;;;;;;;;5024359;28;20102;-77
2021/08/28 07:22:35;;;;;;;14.73;4.70;;;;;;;;;;5026972;28;20041;-77
2021/08/28 07:25:21;;;;;;;12.40;4.35;;;;;;;;;;5008366;28;20037;-78
2021/08/28 07:27:49;;;;;;;15.95;5.10;;;;;;;;;;5019267;28;20041;-78
2021/08/28 07:30:21;;;;;;;12.30;4.55;;;;;;;;;;5025071;28;20037;-78
2021/08/28 07:32:49;;;;;;;13.02;4.70;;;;;;;;;;5018825;28;20270;-79
2021/08/28 07:35:17;;;;;;;13.70;4.78;;;;;;;;;;5022132;28;20215;-78
2021/08/28 07:37:44;;;;;;;13.40;4.53;;;;;;;;;;5019280;28;20105;-79
2021/08/28 07:40:13;;;;;;;11.57;4.05;;;;;;;;;;5023231;28;20060;-82
2021/08/28 07:42:41;;;;;;;13.35;4.97;;;;;;;;;;5014676;28;20763;-78
2021/08/28 07:45:09;;;;;;;11.13;4.03;;;;;;;;;;5022640;28;20037;-79
2021/08/28 07:47:40;;;;;;;12.18;4.40;;;;;;;;;;5017846;28;20048;-78
2021/08/28 07:50:09;;;;;;;14.75;5.47;;;;;;;;;;5024271;28;20060;-80
2021/08/28 07:52:36;;;;;;;11.65;5.05;;;;;;;;;;5016435;28;20040;-78
2021/08/28 07:55:05;;;;;;;13.70;4.90;;;;;;;;;;5020077;28;20056;-80
2021/08/28 07:57:33;;;;;;;12.48;4.45;;;;;;;;;;5024522;28;20048;-79
2021/08/28 08:00:01;;;;;;;13.40;4.20;;;;;;;;;;5020264;28;20481;-79
2021/08/28 08:02:31;;;;;;;12.98;3.90;;;;;;;;;;5022337;28;20072;-84
2021/08/28 08:05:07;;;;;;;9.80;4.13;;;;;;;;;;5018905;28;20024;-85
2021/08/28 08:07:40;;;;;;;10.82;3.70;;;;;;;;;;5031210;28;20027;-84
2021/08/28 08:10:10;;;;;;;13.43;3.70;;;;;;;;;;5026331;28;20033;-85
2021/08/28 08:12:44;;;;;;;16.23;4.15;;;;;;;;;;5026550;28;20067;-85
2021/08/28 08:15:28;;;;;;;;;;;;;;;;;;;;;
2021/08/28 08:18:36;;;;;;;12.60;4.18;;;;;;;;;;5001834;28;20037;-85
2021/08/28 08:21:03;;;;;;;12.25;4.40;;;;;;;;;;5028258;28;20029;-89
2021/08/28 08:23:32;;;;;;;11.73;3.90;;;;;;;;;;5020090;28;20086;-88
2021/08/28 08:26:08;;;;;;;13.32;3.78;;;;;;;;;;5014897;28;20044;-85
2021/08/28 08:28:39;;;;;;;10.18;4.03;;;;;;;;;;5022049;28;20037;-86
2021/08/28 08:31:11;;;;;;;11.60;3.80;;;;;;;;;;5020724;28;20032;-86
2021/08/28 08:33:39;;;;;;;10.13;3.75;;;;;;;;;;5023690;28;20029;-83
2021/08/28 08:36:10;;;;;;;12.27;3.70;;;;;;;;;;5022069;28;20079;-84
2021/08/28 08:38:38;;;;;;;12.23;3.70;;;;;;;;;;5009337;28;20063;-85
2021/08/28 08:41:05;;;;;;;10.77;3.97;;;;;;;;;;5027825;28;20064;-87
2021/08/28 08:43:37;;;;;;;13.68;3.80;;;;;;;;;;5022289;28;20070;-86
2021/08/28 08:46:10;;;;;;;11.43;3.95;;;;;;;;;;5025532;28;20235;-85
2021/08/28 08:48:48;;;;;;;10.95;3.53;;;;;;;;;;5021894;28;20029;-84
2021/08/28 08:51:21;;;;;;;12.40;3.85;;;;;;;;;;5027899;28;20041;-84
2021/08/28 08:53:50;;;;;;;14.68;4.25;;;;;;;;;;5023870;28;20025;-85
2021/08/28 08:56:18;;;;;;;10.07;3.50;;;;;;;;;;5030212;28;20029;-88
2021/08/28 08:58:48;;;;;;;9.00;3.28;;;;;;;;;;5047092;28;20043;-90
2021/08/28 09:01:17;;;;;;;14.32;3.47;;;;;;;;;;5041288;28;20201;-87
2021/08/28 09:03:45;;;;;;;11.00;3.05;;;;;;;;;;5054033;28;20017;-87
2021/08/28 09:06:14;;;;;;;9.93;3.33;;;;;;;;;;5035163;28;21224;-87
2021/08/28 09:08:43;;;;;;;11.55;3.10;;;;;;;;;;5024214;28;20038;-89
2021/08/28 09:11:31;;;;;;;8.80;2.92;;;;;;;;;;5030258;28;20029;-86
2021/08/28 09:14:17;;;;;;;11.15;3.22;;;;;;;;;;5023965;28;20037;-85
2021/08/28 09:16:44;;;;;;;12.10;3.10;;;;;;;;;;5021396;28;20016;-86
2021/08/28 09:19:14;;;;;;;12.88;3.50;;;;;;;;;;5023477;28;20040;-84
2021/08/28 09:21:43;;;;;;;11.60;3.10;;;;;;;;;;5003871;28;20040;-85
2021/08/28 09:24:13;;;;;;;12.65;3.08;;;;;;;;;;5026416;28;20063;-87
2021/08/28 09:26:45;;;;;;;11.43;3.25;;;;;;;;;;5012701;28;20075;-88
2021/08/28 09:29:19;;;;;;;10.40;3.15;;;;;;;;;;5033955;28;20036;-92
2021/08/28 09:31:49;;;;;;;9.35;3.03;;;;;;;;;;5024372;28;20136;-90
2021/08/28 09:34:27;;;;;;;8.90;2.80;;;;;;;;;;5033231;28;20035;-88
2021/08/28 09:36:54;;;;;;;12.68;3.30;;;;;;;;;;5030034;28;20025;-87
2021/08/28 09:39:21;;;;;;;12.85;3.00;;;;;;;;;;5033470;28;20049;-89
2021/08/28 09:42:00;;;;;;;10.90;3.10;;;;;;;;;;5027540;28;20128;-89
2021/08/28 09:44:30;;;;;;;10.05;3.25;;;;;;;;;;5029270;28;20591;-88
2021/08/28 09:47:08;;;;;;;10.30;3.15;;;;;;;;;;5027449;28;20260;-89
2021/08/28 09:49:36;;;;;;;9.85;3.22;;;;;;;;;;5029930;28;20040;-91
2021/08/28 09:52:04;;;;;;;10.82;3.55;;;;;;;;;;5030098;28;20028;-89
2021/08/28 09:54:31;;;;;;;9.65;3.50;;;;;;;;;;5039109;28;20133;-86
2021/08/28 09:57:06;;;;;;;9.73;2.70;;;;;;;;;;5024972;28;20101;-87
2021/08/28 09:59:33;;;;;;;10.13;2.80;;;;;;;;;;5013481;28;20025;-87
2021/08/28 10:02:09;;;;;;;7.47;2.30;;;;;;;;;;5025811;28;20502;-86
2021/08/28 10:04:57;;;;;;;12.27;3.03;;;;;;;;;;5027281;28;20037;-89
2021/08/28 10:07:28;;;;;;;9.48;2.88;;;;;;;;;;5043751;28;20313;-88
2021/08/28 10:10:05;;;;;;;13.10;2.83;;;;;;;;;;5042382;28;20033;-88
2021/08/28 10:12:41;;;;;;;10.90;2.63;;;;;;;;;;5038927;28;20084;-88
2021/08/28 10:15:09;;;;;;;8.38;2.47;;;;;;;;;;5044163;28;20056;-88
2021/08/28 10:17:39;;;;;;;10.88;3.08;;;;;;;;;;5052638;28;20045;-86
2021/08/28 10:20:06;;;;;;;11.65;2.90;;;;;;;;;;5040049;28;20072;-87
2021/08/28 10:22:35;;;;;;;10.90;2.90;;;;;;;;;;5034434;28;20039;-86
2021/08/28 10:25:05;;;;;;;8.38;2.67;;;;;;;;;;5028963;28;20908;-83
2021/08/28 10:27:35;;;;;;;12.00;3.10;;;;;;;;;;5024350;28;20035;-83
2021/08/28 10:30:04;;;;;;;10.27;3.13;;;;;;;;;;5025743;28;20338;-84
2021/08/28 10:32:32;;;;;;;12.25;3.00;;;;;;;;;;5008908;28;20564;-82
2021/08/28 10:35:01;;;;;;;10.38;3.10;;;;;;;;;;5020411;28;20094;-83
2021/08/28 10:37:28;;;;;;;10.73;3.33;;;;;;;;;;5021424;28;20033;-83
2021/08/28 10:39:55;;;;;;;11.57;3.45;;;;;;;;;;5019797;28;20048;-82
2021/08/28 10:42:25;;;;;;;10.20;2.85;;;;;;;;;;5021205;28;20095;-83
2021/08/28 10:44:56;;;;;;;11.00;3.03;;;;;;;;;;5022085;28;20419;-84
2021/08/28 10:47:28;;;;;;;10.52;3.30;;;;;;;;;;5021217;28;20249;-82
2021/08/28 10:49:57;;;;;;;11.65;3.42;;;;;;;;;;5025729;28;20041;-83
2021/08/28 10:52:24;;;;;;;11.00;3.10;;;;;;;;;;5023458;28;20029;-84
2021/08/28 10:54:56;;;;;;;11.32;2.95;;;;;;;;;;5026213;28;20056;-82
2021/08/28 10:57:30;;;;;;;10.32;3.33;;;;;;;;;;5026247;28;20024;-87
2021/08/28 11:00:01;;;;;;;10.20;3.40;;;;;;;;;;5021207;28;21072;-84
2021/08/28 11:02:48;;;;;;;8.48;2.90;;;;;;;;;;5030212;28;20063;-85
2021/08/28 11:05:14;;;;;;;10.40;3.17;;;;;;;;;;5024700;28;20029;-85
2021/08/28 11:07:42;;;;;;;11.35;2.78;;;;;;;;;;5026789;28;20033;-84
2021/08/28 11:10:26;;;;;;;10.07;2.72;;;;;;;;;;5025875;28;20546;-85
2021/08/28 11:13:04;;;;;;;10.20;3.20;;;;;;;;;;5045524;28;20029;-87
2021/08/28 11:15:37;;;;;;;11.25;2.97;;;;;;;;;;5048012;28;20033;-87
2021/08/28 11:18:13;;;;;;;13.05;2.83;;;;;;;;;;5045263;28;20379;-87
2021/08/28 11:20:48;;;;;;;10.32;3.05;;;;;;;;;;5028066;28;20056;-87
2021/08/28 11:23:21;;;;;;;8.52;2.60;;;;;;;;;;5032747;28;20029;-85
2021/08/28 11:25:49;;;;;;;9.27;3.08;;;;;;;;;;5037387;28;20032;-92
2021/08/28 11:28:29;;;;;;;9.63;2.60;;;;;;;;;;5051884;28;20052;-94
2021/08/28 11:31:00;;;;;;;8.93;2.88;;;;;;;;;;5054314;28;21100;-92
2021/08/28 11:33:33;;;;;;;10.63;2.78;;;;;;;;;;5059131;28;20022;-93
2021/08/28 11:36:04;;;;;;;8.30;2.70;;;;;;;;;;5064396;28;20084;-93
2021/08/28 11:38:38;;;;;;;9.23;2.75;;;;;;;;;;5059373;28;20041;-90
2021/08/28 11:41:10;;;;;;;11.13;3.28;;;;;;;;;;5045480;28;20041;-90
2021/08/28 11:43:45;;;;;;;9.40;2.80;;;;;;;;;;5039680;28;20055;-90
2021/08/28 11:46:30;;;;;;;12.15;3.50;;;;;;;;;;5034089;28;20044;-86
2021/08/28 11:49:00;;;;;;;9.05;2.80;;;;;;;;;;5029746;28;21240;-87
2021/08/28 11:51:30;;;;;;;9.38;2.72;;;;;;;;;;5028474;28;20060;-87
2021/08/28 11:54:01;;;;;;;10.20;2.80;;;;;;;;;;5043272;28;20609;-87
2021/08/28 11:56:35;;;;;;;11.65;2.90;;;;;;;;;;5048784;28;20037;-86
2021/08/28 11:59:04;;;;;;;11.45;3.00;;;;;;;;;;5031730;28;20053;-86
2021/08/28 12:01:36;;;;;;;12.18;3.25;;;;;;;;;;5046334;28;20873;-87
2021/08/28 12:04:05;;;;;;;8.75;2.97;;;;;;;;;;5051707;28;20040;-87
2021/08/28 12:06:35;;;;;;;9.63;2.80;;;;;;;;;;5049145;28;20033;-87
2021/08/28 12:09:06;;;;;;;9.63;3.10;;;;;;;;;;5053557;28;20024;-86
2021/08/28 12:11:40;;;;;;;11.93;3.20;;;;;;;;;;5037219;28;20644;-85
2021/08/28 12:14:18;;;;;;;9.55;3.05;;;;;;;;;;5052684;28;20505;-86
2021/08/28 12:16:47;;;;;;;10.57;2.63;;;;;;;;;;5055451;28;20082;-86
2021/08/28 12:19:18;;;;;;;11.77;3.10;;;;;;;;;;5063595;28;20036;-86
2021/08/28 12:22:19;;;;;;;11.30;3.03;;;;;;;;;;5062264;28;20037;-87
2021/08/28 12:24:47;;;;;;;10.02;3.20;;;;;;;;;;5049074;28;20122;-88
2021/08/28 12:27:17;;;;;;;11.27;3.20;;;;;;;;;;5051495;28;20025;-88
2021/08/28 12:29:46;;;;;;;10.93;3.25;;;;;;;;;;5039682;28;20450;-88
2021/08/28 12:32:19;;;;;;;13.20;3.20;;;;;;;;;;5056678;28;20078;-88
2021/08/28 12:35:06;;;;;;;9.70;3.58;;;;;;;;;;5062051;28;20044;-90
2021/08/28 12:37:34;;;;;;;12.70;3.28;;;;;;;;;;5045746;28;20033;-89
2021/08/28 12:40:03;;;;;;;9.30;2.83;;;;;;;;;;5054082;28;20128;-89
2021/08/28 12:42:31;;;;;;;9.70;2.95;;;;;;;;;;5049002;28;20040;-86
2021/08/28 12:44:59;;;;;;;9.07;3.05;;;;;;;;;;5038544;28;20058;-86
2021/08/28 12:47:32;;;;;;;10.40;3.08;;;;;;;;;;5020386;28;20484;-86
2021/08/28 12:50:04;;;;;;;10.90;2.70;;;;;;;;;;4986369;28;20069;-89
2021/08/28 12:52:38;;;;;;;8.18;2.58;;;;;;;;;;5008371;28;20137;-88
2021/08/28 12:55:06;;;;;;;10.57;3.15;;;;;;;;;;5010422;28;20035;-89
2021/08/28 12:57:35;;;;;;;9.35;2.70;;;;;;;;;;5009443;28;20465;-88
2021/08/28 13:00:05;;;;;;;10.88;3.15;;;;;;;;;;5005951;28;20048;-86
2021/08/28 13:02:34;;;;;;;9.98;2.55;;;;;;;;;;4987913;28;20037;-87
2021/08/28 13:05:05;;;;;;;9.32;2.83;;;;;;;;;;4996445;28;20044;-86
2021/08/28 13:07:36;;;;;;;9.48;3.30;;;;;;;;;;5006069;28;20049;-86
2021/08/28 13:10:13;;;;;;;8.85;3.15;;;;;;;;;;5005385;28;20116;-86
2021/08/28 13:12:49;;;;;;;9.82;2.90;;;;;;;;;;4986499;28;20041;-85
2021/08/28 13:15:29;;;;;;;11.27;3.10;;;;;;;;;;5007609;28;20034;-86
2021/08/28 13:18:09;;;;;;;12.10;3.50;;;;;;;;;;5006368;28;20116;-86
2021/08/28 13:20:38;;;;;;;10.98;3.30;;;;;;;;;;5004918;28;20181;-86
2021/08/28 13:23:12;;;;;;;8.45;2.70;;;;;;;;;;5013565;28;20107;-86
2021/08/28 13:25:50;;;;;;;8.80;2.83;;;;;;;;;;5008998;28;20597;-87
2021/08/28 13:28:31;;;;;;;8.57;2.65;;;;;;;;;;5027462;28;20473;-86
2021/08/28 13:31:01;;;;;;;9.13;2.65;;;;;;;;;;5007103;28;20036;-86
2021/08/28 13:33:29;;;;;;;8.55;2.50;;;;;;;;;;5010734;28;20041;-86
2021/08/28 13:36:02;;;;;;;9.40;2.55;;;;;;;;;;5025279;28;20736;-86
2021/08/28 13:38:29;;;;;;;9.30;2.80;;;;;;;;;;5038582;28;20068;-86
2021/08/28 13:40:57;;;;;;;8.18;2.70;;;;;;;;;;5020974;28;20052;-88
2021/08/28 13:43:25;;;;;;;10.18;2.83;;;;;;;;;;5023995;28;20995;-87
2021/08/28 13:45:57;;;;;;;9.20;2.53;;;;;;;;;;5028485;28;20091;-88
2021/08/28 13:48:24;;;;;;;8.05;2.63;;;;;;;;;;5030079;28;20091;-88
2021/08/28 13:50:50;;;;;;;9.73;2.75;;;;;;;;;;5024730;28;20397;-89
2021/08/28 13:53:21;;;;;;;7.70;2.88;;;;;;;;;;5027033;28;20047;-85
2021/08/28 13:55:48;;;;;;;13.80;2.90;;;;;;;;;;5019941;28;20053;-85
2021/08/28 13:58:18;;;;;;;8.88;2.47;;;;;;;;;;5026702;28;20025;-84
2021/08/28 14:00:46;;;;;;;11.80;3.63;;;;;;;;;;5021973;28;20031;-85
2021/08/28 14:03:15;;;;;;;7.57;2.60;;;;;;;;;;5023040;28;20033;-86
2021/08/28 14:05:43;;;;;;;9.40;2.60;;;;;;;;;;5018712;28;20037;-86
2021/08/28 14:08:10;;;;;;;10.18;2.95;;;;;;;;;;5023117;28;20360;-86
2021/08/28 14:10:38;;;;;;;8.43;2.40;;;;;;;;;;5022904;28;20021;-85
2021/08/28 14:13:05;;;;;;;9.20;2.92;;;;;;;;;;5023376;28;20029;-85
2021/08/28 14:15:32;;;;;;;10.70;2.70;;;;;;;;;;5023409;28;20032;-85
2021/08/28 14:18:03;;;;;;;9.40;2.70;;;;;;;;;;5019728;28;20473;-87
2021/08/28 14:20:30;;;;;;;9.18;3.10;;;;;;;;;;5031493;28;20037;-87
2021/08/28 14:22:59;;;;;;;9.73;2.75;;;;;;;;;;5021295;28;20025;-88
2021/08/28 14:25:28;;;;;;;10.32;3.38;;;;;;;;;;5026453;28;20057;-86
2021/08/28 14:27:55;;;;;;;8.57;2.53;;;;;;;;;;5021670;28;20033;-86
2021/08/28 14:30:25;;;;;;;9.13;3.00;;;;;;;;;;5026490;28;20923;-88
2021/08/28 14:32:52;;;;;;;13.13;3.42;;;;;;;;;;5024595;28;20029;-87
2021/08/28 14:35:20;;;;;;;11.02;3.10;;;;;;;;;;5027410;28;20029;-86
2021/08/28 14:37:48;;;;;;;9.68;2.90;;;;;;;;;;5022508;28;20036;-86
2021/08/28 14:40:16;;;;;;;9.80;3.13;;;;;;;;;;5020453;28;20064;-86
2021/08/28 14:42:44;;;;;;;8.68;2.80;;;;;;;;;;5025959;28;20021;-86
2021/08/28 14:45:11;;;;;;;11.57;4.05;;;;;;;;;;5025833;28;20103;-87
2021/08/28 14:47:39;;;;;;;10.63;3.20;;;;;;;;;;5025773;28;20029;-87
2021/08/28 14:50:08;;;;;;;9.00;3.78;;;;;;;;;;5043151;28;20044;-87
2021/08/28 14:52:36;;;;;;;9.63;3.42;;;;;;;;;;5027647;28;20116;-86